createdAt,value
2018-06-11T00:01:08.323Z,99.90
2018-06-11T00:03:35.278Z,99.90
2018-06-11T00:06:02.878Z,99.90
2018-06-11T00:08:29.835Z,99.90
2018-06-11T00:10:56.824Z,99.90
2018-06-11T00:13:23.764Z,99.90
2018-06-11T00:15:50.738Z,99.90
2018-06-11T00:18:17.694Z,99.90
2018-06-11T00:20:44.654Z,99.90
2018-06-11T00:23:11.582Z,99.90
2018-06-11T00:25:38.553Z,99.90
2018-06-11T00:28:05.484Z,99.90
2018-06-11T00:30:32.419Z,99.90
2018-06-11T00:32:59.373Z,99.90
2018-06-11T00:35:26.293Z,99.90
2018-06-11T00:37:53.248Z,99.90
2018-06-11T00:40:20.194Z,99.90
2018-06-11T00:42:47.488Z,99.90
2018-06-11T00:45:14.392Z,99.90
2018-06-11T00:47:41.337Z,99.90
2018-06-11T00:50:08.269Z,99.90
2018-06-11T00:52:35.272Z,99.90
2018-06-11T00:55:02.199Z,99.90
2018-06-11T00:57:29.133Z,99.90
2018-06-11T00:59:56.052Z,99.90
2018-06-11T01:02:22.996Z,99.90
2018-06-11T01:04:49.923Z,99.90
2018-06-11T01:07:16.876Z,99.90
2018-06-11T01:09:43.849Z,99.90
2018-06-11T01:12:10.781Z,99.90
2018-06-11T01:14:37.711Z,99.90
2018-06-11T01:17:04.690Z,99.90
2018-06-11T01:19:31.619Z,99.90
2018-06-11T01:21:58.555Z,99.90
2018-06-11T01:24:25.676Z,99.90
2018-06-11T01:26:52.616Z,99.90
2018-06-11T01:29:19.571Z,99.90
2018-06-11T01:31:46.529Z,99.90
2018-06-11T01:34:13.484Z,99.90
2018-06-11T01:36:40.415Z,99.90
2018-06-11T01:39:07.374Z,99.90
2018-06-11T01:41:34.665Z,99.90
2018-06-11T01:44:01.633Z,99.90
2018-06-11T01:46:28.582Z,99.90
2018-06-11T01:48:55.513Z,99.90
2018-06-11T01:51:22.449Z,99.90
2018-06-11T01:53:49.409Z,99.90
2018-06-11T01:56:16.344Z,99.90
2018-06-11T01:58:43.283Z,99.90
2018-06-11T02:01:10.241Z,99.90
2018-06-11T02:03:37.222Z,99.90
2018-06-11T02:06:04.204Z,99.90
2018-06-11T02:08:31.192Z,99.90
2018-06-11T02:10:58.111Z,99.90
2018-06-11T02:13:25.036Z,99.90
2018-06-11T02:15:52.000Z,99.90
2018-06-11T02:18:18.953Z,99.90
2018-06-11T02:20:45.920Z,99.90
2018-06-11T02:23:12.877Z,99.90
2018-06-11T02:25:39.845Z,99.90
2018-06-11T02:28:06.802Z,99.90
2018-06-11T02:30:33.747Z,99.90
2018-06-11T02:33:00.684Z,99.90
2018-06-11T02:35:27.628Z,99.90
2018-06-11T02:37:54.606Z,99.90
2018-06-11T02:40:21.548Z,99.90
2018-06-11T02:42:48.507Z,99.90
2018-06-11T02:45:15.474Z,99.90
2018-06-11T02:47:42.433Z,99.90
2018-06-11T02:50:09.363Z,99.90
2018-06-11T02:52:37.034Z,99.90
2018-06-11T02:55:04.064Z,99.90
2018-06-11T02:57:31.033Z,99.90
2018-06-11T02:59:57.987Z,99.90
2018-06-11T03:02:24.937Z,99.90
2018-06-11T03:04:51.868Z,99.90
2018-06-11T03:07:18.846Z,99.90
2018-06-11T03:09:45.798Z,99.90
2018-06-11T03:12:12.765Z,99.90
2018-06-11T03:14:39.710Z,99.90
2018-06-11T03:17:06.663Z,99.90
2018-06-11T03:19:33.686Z,99.90
2018-06-11T03:22:00.689Z,99.90
2018-06-11T03:24:27.632Z,99.90
2018-06-11T03:26:54.601Z,99.90
2018-06-11T03:29:21.582Z,99.90
2018-06-11T03:31:48.538Z,99.90
2018-06-11T03:34:15.521Z,99.90
2018-06-11T03:36:42.469Z,99.90
2018-06-11T03:39:09.405Z,99.90
2018-06-11T03:41:36.510Z,99.90
2018-06-11T03:44:03.482Z,99.90
2018-06-11T03:46:30.411Z,99.90
2018-06-11T03:48:57.378Z,99.90
2018-06-11T03:51:24.329Z,99.90
2018-06-11T03:53:51.303Z,99.90
2018-06-11T03:56:18.732Z,99.90
2018-06-11T03:58:45.686Z,99.90
2018-06-11T04:01:12.616Z,99.90
2018-06-11T04:03:39.576Z,99.90
2018-06-11T04:06:06.543Z,99.90
2018-06-11T04:08:33.468Z,99.90
2018-06-11T04:11:00.475Z,99.90
2018-06-11T04:13:27.386Z,99.90
2018-06-11T04:15:54.317Z,99.90
2018-06-11T04:18:21.293Z,99.90
2018-06-11T04:20:48.303Z,99.90
2018-06-11T04:23:15.259Z,99.90
2018-06-11T04:25:42.216Z,99.90
2018-06-11T04:28:09.242Z,99.90
2018-06-11T04:30:36.246Z,99.90
2018-06-11T04:33:03.198Z,99.90
2018-06-11T04:35:30.168Z,99.90
2018-06-11T04:37:57.106Z,99.90
2018-06-11T04:40:24.072Z,99.90
2018-06-11T04:42:51.070Z,99.90
2018-06-11T04:45:18.100Z,99.90
2018-06-11T04:47:44.981Z,99.90
2018-06-11T04:52:39.061Z,99.90
2018-06-11T04:55:06.053Z,99.90
2018-06-11T04:57:32.976Z,99.90
2018-06-11T04:59:59.937Z,99.90
2018-06-11T05:02:26.934Z,99.90
2018-06-11T05:04:53.936Z,99.90
2018-06-11T05:07:20.905Z,99.90
2018-06-11T05:09:47.886Z,99.90
2018-06-11T05:12:14.865Z,99.90
2018-06-11T05:14:41.798Z,99.90
2018-06-11T05:17:08.794Z,99.90
2018-06-11T05:19:35.764Z,99.90
2018-06-11T05:22:02.732Z,99.90
2018-06-11T05:24:29.725Z,98.60
2018-06-11T05:26:56.788Z,99.60
2018-06-11T05:29:24.412Z,99.70
2018-06-11T05:31:51.352Z,99.90
2018-06-11T05:34:18.311Z,99.90
2018-06-11T05:36:45.280Z,99.50
2018-06-11T05:39:12.221Z,98.90
2018-06-11T05:41:39.224Z,99.20
2018-06-11T05:44:06.204Z,99.00
2018-06-11T05:46:33.154Z,99.60
2018-06-11T05:49:00.109Z,99.90
2018-06-11T05:51:27.167Z,99.90
2018-06-11T05:53:54.133Z,99.90
2018-06-11T05:56:21.092Z,99.90
2018-06-11T05:58:48.045Z,99.90
2018-06-11T06:01:14.963Z,99.90
2018-06-11T06:03:41.912Z,99.70
2018-06-11T06:06:08.886Z,96.80
2018-06-11T06:08:36.106Z,93.90
2018-06-11T06:11:03.216Z,94.60
2018-06-11T06:13:30.134Z,93.30
2018-06-11T06:15:57.064Z,93.00
2018-06-11T06:20:51.071Z,93.30
2018-06-11T06:23:18.053Z,93.00
2018-06-11T06:25:45.049Z,91.10
2018-06-11T06:28:12.028Z,89.50
2018-06-11T06:30:38.944Z,87.30
2018-06-11T06:33:05.900Z,85.50
2018-06-11T06:35:32.825Z,84.20
2018-06-11T06:37:59.758Z,83.20
2018-06-11T06:40:26.730Z,84.30
2018-06-11T06:42:53.624Z,83.40
2018-06-11T06:45:20.537Z,84.00
2018-06-11T06:47:47.489Z,81.90
2018-06-11T06:50:14.425Z,81.40
2018-06-11T06:52:41.359Z,84.00
2018-06-11T06:55:08.310Z,80.40
2018-06-11T06:57:35.270Z,77.20
2018-06-11T07:00:02.210Z,74.80
2018-06-11T07:02:29.167Z,72.00
2018-06-11T07:04:56.098Z,73.40
2018-06-11T07:07:23.018Z,72.90
2018-06-11T07:09:49.970Z,71.50
2018-06-11T07:12:16.908Z,70.20
2018-06-11T07:14:43.859Z,65.20
2018-06-11T07:17:10.822Z,66.00
2018-06-11T07:19:37.752Z,66.40
2018-06-11T07:22:04.739Z,67.00
2018-06-11T07:24:31.692Z,66.90
2018-06-11T07:26:58.774Z,64.40
2018-06-11T07:29:25.739Z,61.80
2018-06-11T07:31:52.687Z,63.10
2018-06-11T07:34:19.616Z,65.90
2018-06-11T07:36:46.579Z,68.80
2018-06-11T07:39:13.547Z,73.20
2018-06-11T07:41:40.466Z,76.20
2018-06-11T07:44:07.444Z,76.20
2018-06-11T07:46:34.405Z,76.10
2018-06-11T07:49:01.324Z,73.30
2018-06-11T07:51:28.393Z,67.10
2018-06-11T07:53:55.335Z,67.70
2018-06-11T07:56:22.403Z,65.90
2018-06-11T07:58:49.365Z,67.30
2018-06-11T08:01:16.337Z,66.00
2018-06-11T08:03:43.250Z,64.60
2018-06-11T08:06:10.972Z,64.90
2018-06-11T08:08:37.893Z,59.70
2018-06-11T08:11:04.820Z,59.90
2018-06-11T08:13:31.809Z,59.40
2018-06-11T08:18:25.699Z,54.20
2018-06-11T08:20:52.646Z,56.10
2018-06-11T08:23:19.535Z,54.90
2018-06-11T08:25:46.480Z,51.70
2018-06-11T08:28:13.399Z,50.00
2018-06-11T08:30:40.343Z,45.90
2018-06-11T08:33:07.256Z,46.40
2018-06-11T08:35:34.180Z,48.30
2018-06-11T08:38:01.095Z,50.80
2018-06-11T08:40:28.008Z,50.70
2018-06-11T08:42:54.949Z,49.50
2018-06-11T08:45:21.880Z,46.70
2018-06-11T08:47:48.798Z,48.20
2018-06-11T08:50:15.732Z,49.20
2018-06-11T08:52:42.658Z,53.10
2018-06-11T08:55:09.572Z,55.20
2018-06-11T08:57:36.501Z,53.10
2018-06-11T09:00:04.569Z,51.50
2018-06-11T09:02:31.444Z,50.20
2018-06-11T09:04:58.416Z,47.10
2018-06-11T09:17:13.412Z,45.40
2018-06-11T09:19:40.327Z,42.10
2018-06-11T09:22:07.245Z,43.50
2018-06-11T09:24:34.169Z,42.30
2018-06-11T09:27:01.133Z,44.20
2018-06-11T09:29:28.071Z,43.50
2018-06-11T09:31:55.004Z,42.40
2018-06-11T09:34:21.960Z,41.30
2018-06-11T09:36:48.888Z,43.10
2018-06-11T09:39:15.796Z,44.70
2018-06-11T09:41:42.729Z,45.70
2018-06-11T09:44:09.695Z,44.50
2018-06-11T09:46:36.625Z,44.20
2018-06-11T09:49:03.620Z,42.60
2018-06-11T09:51:30.544Z,42.70
2018-06-11T09:53:57.541Z,41.10
2018-06-11T09:56:24.571Z,41.50
2018-06-11T09:58:51.542Z,42.40
2018-06-11T10:01:18.456Z,41.40
2018-06-11T10:03:45.418Z,40.40
2018-06-11T10:06:12.332Z,41.30
2018-06-11T10:08:39.251Z,39.60
2018-06-11T10:11:06.193Z,40.10
2018-06-11T10:13:33.174Z,39.90
2018-06-11T10:16:00.075Z,39.60
2018-06-11T10:20:54.084Z,40.50
2018-06-11T10:23:20.994Z,39.40
2018-06-11T10:33:09.155Z,37.80
2018-06-11T10:35:36.069Z,38.60
2018-06-11T10:38:03.033Z,38.70
2018-06-11T10:40:29.968Z,37.50
2018-06-11T10:42:56.900Z,36.20
2018-06-11T10:45:23.836Z,35.90
2018-06-11T10:57:39.402Z,33.30
2018-06-11T11:00:06.310Z,36.90
2018-06-11T11:02:33.261Z,35.00
2018-06-11T11:05:00.180Z,36.80
2018-06-11T11:07:27.109Z,35.30
2018-06-11T11:09:54.033Z,35.50
2018-06-11T11:12:20.955Z,35.00
2018-06-11T16:23:36.430Z,27.90
2018-06-11T16:26:03.629Z,31.60
2018-06-11T16:28:30.575Z,33.00
2018-06-11T16:30:57.542Z,34.10
2018-06-11T16:33:24.494Z,34.80
2018-06-11T16:35:51.456Z,34.70
2018-06-11T16:38:18.397Z,34.70
2018-06-11T16:40:45.568Z,35.20
2018-06-11T16:43:12.495Z,35.60
2018-06-11T16:45:39.455Z,35.20
2018-06-11T16:48:06.453Z,35.90
2018-06-11T16:50:33.392Z,36.00
2018-06-11T16:53:00.332Z,36.60
2018-06-11T16:55:27.298Z,37.40
2018-06-11T16:57:54.227Z,37.30
2018-06-11T17:00:21.148Z,37.30
2018-06-11T17:02:48.111Z,37.60
2018-06-11T17:05:15.038Z,37.60
2018-06-11T17:07:41.976Z,37.90
2018-06-11T17:10:08.919Z,37.80
2018-06-11T17:12:35.845Z,38.10
2018-06-11T17:15:02.925Z,38.60
2018-06-11T17:17:29.858Z,38.60
2018-06-11T17:19:56.807Z,38.20
2018-06-11T17:22:23.711Z,38.30
2018-06-11T17:24:50.644Z,38.60
2018-06-11T17:27:17.556Z,38.10
2018-06-11T17:29:44.473Z,38.20
2018-06-11T17:32:11.450Z,37.80
2018-06-11T17:34:38.415Z,39.30
2018-06-11T17:37:05.325Z,39.20
2018-06-11T17:39:32.255Z,39.20
2018-06-11T17:41:59.352Z,39.80
2018-06-11T17:44:26.261Z,40.10
2018-06-11T17:46:53.218Z,39.60
2018-06-11T17:49:20.149Z,39.80
2018-06-11T17:51:47.073Z,40.00
2018-06-11T17:54:14.088Z,40.10
2018-06-11T17:56:40.976Z,40.00
2018-06-11T17:59:08.114Z,39.90
2018-06-11T18:01:35.123Z,40.60
2018-06-11T18:04:02.055Z,40.20
2018-06-11T18:06:29.001Z,41.10
2018-06-11T18:08:55.951Z,40.50
2018-06-11T18:11:22.899Z,40.20
2018-06-11T18:13:49.847Z,40.30
2018-06-11T18:16:16.820Z,40.80
2018-06-11T18:18:43.763Z,40.70
2018-06-11T18:21:10.697Z,41.20
2018-06-11T18:23:37.865Z,41.20
2018-06-11T18:26:04.821Z,41.10
2018-06-11T18:28:31.782Z,41.50
2018-06-11T18:30:58.868Z,42.30
2018-06-11T18:33:25.817Z,41.90
2018-06-11T18:35:52.773Z,42.10
2018-06-11T18:38:19.733Z,41.90
2018-06-11T18:40:46.668Z,42.40
2018-06-11T18:43:13.619Z,42.20
2018-06-11T18:45:40.573Z,42.90
2018-06-11T18:48:07.519Z,42.60
2018-06-11T18:50:34.461Z,42.70
2018-06-11T18:53:01.407Z,42.90
2018-06-11T18:55:28.348Z,42.50
2018-06-11T18:57:55.289Z,42.60
2018-06-11T19:00:22.331Z,43.10
2018-06-11T19:02:49.275Z,42.30
2018-06-11T19:05:16.216Z,42.90
2018-06-11T19:07:43.159Z,43.10
2018-06-11T19:10:10.084Z,42.70
2018-06-11T19:12:37.034Z,43.30
2018-06-11T19:15:04.041Z,43.80
2018-06-11T19:17:31.213Z,44.00
2018-06-11T19:19:58.334Z,44.90
2018-06-11T19:22:25.335Z,44.30
2018-06-11T19:24:52.914Z,44.80
2018-06-11T19:27:19.876Z,45.10
2018-06-11T19:29:46.913Z,45.90
2018-06-11T19:32:13.845Z,45.60
2018-06-11T19:34:40.778Z,45.90
2018-06-11T19:37:07.751Z,46.80
2018-06-11T19:39:34.706Z,46.40
2018-06-11T19:42:01.638Z,46.50
2018-06-11T19:44:28.596Z,47.20
2018-06-11T19:46:55.543Z,46.70
2018-06-11T19:49:22.452Z,47.00
2018-06-11T19:51:49.441Z,47.70
2018-06-11T19:54:16.432Z,47.80
2018-06-11T19:56:43.356Z,47.60
2018-06-11T19:59:10.307Z,47.30
2018-06-11T20:01:37.253Z,46.70
2018-06-11T20:04:04.224Z,46.10
2018-06-11T20:06:31.184Z,46.60
2018-06-11T20:08:58.142Z,46.60
2018-06-11T20:11:25.163Z,46.50
2018-06-11T20:13:52.151Z,46.50
2018-06-11T20:16:19.085Z,47.50
2018-06-11T20:18:46.093Z,46.30
2018-06-11T20:21:13.155Z,46.70
2018-06-11T20:23:40.181Z,46.30
2018-06-11T20:26:07.182Z,47.30
2018-06-11T20:28:34.377Z,46.90
2018-06-11T20:31:01.368Z,46.50
2018-06-11T20:33:28.476Z,46.70
2018-06-11T20:35:55.494Z,47.10
2018-06-11T20:38:22.460Z,47.90
2018-06-11T20:40:50.338Z,47.80
2018-06-11T20:45:44.439Z,49.10
2018-06-11T20:48:11.390Z,49.50
2018-06-11T20:50:38.349Z,50.00
2018-06-11T20:53:05.376Z,50.20
2018-06-11T20:55:32.357Z,50.50
2018-06-11T20:57:59.405Z,50.50
2018-06-11T21:00:26.340Z,50.50
2018-06-11T21:02:53.305Z,50.80
2018-06-11T21:05:20.291Z,51.10
2018-06-11T21:07:47.261Z,51.50
2018-06-11T21:10:14.217Z,51.70
2018-06-11T21:12:41.190Z,52.10
2018-06-11T21:15:08.197Z,51.80
2018-06-11T21:17:35.140Z,53.00
2018-06-11T21:20:02.127Z,52.50
2018-06-11T21:22:29.157Z,52.70
2018-06-11T21:24:56.141Z,53.00
2018-06-11T21:27:23.152Z,53.00
2018-06-11T21:29:50.136Z,53.60
2018-06-11T21:32:17.104Z,53.70
2018-06-11T21:34:44.148Z,53.70
2018-06-11T21:37:11.154Z,54.20
2018-06-11T21:39:38.140Z,54.40
2018-06-11T21:42:05.146Z,54.70
2018-06-11T21:44:32.120Z,55.00
2018-06-11T21:46:59.091Z,55.10
2018-06-11T21:49:26.138Z,55.50
2018-06-11T21:51:53.099Z,55.90
2018-06-11T21:54:20.122Z,56.90
2018-06-11T21:56:47.174Z,55.90
2018-06-11T21:59:14.194Z,55.80
2018-06-11T22:01:41.210Z,55.60
2018-06-11T22:04:08.313Z,55.60
2018-06-11T22:06:35.308Z,55.00
2018-06-11T22:09:02.404Z,54.70
2018-06-11T22:11:29.428Z,54.90
2018-06-11T22:13:56.433Z,54.90
2018-06-11T22:16:23.489Z,55.50
2018-06-11T22:18:50.485Z,56.00
2018-06-11T22:21:17.478Z,56.30
2018-06-11T22:23:44.416Z,57.50
2018-06-11T22:26:18.304Z,57.10
2018-06-11T22:31:12.419Z,57.40
2018-06-11T22:33:39.519Z,58.50
2018-06-11T22:36:06.557Z,58.90
2018-06-11T22:38:33.522Z,59.20
2018-06-11T22:41:00.560Z,59.50
2018-06-11T22:43:27.600Z,59.80
2018-06-11T22:45:54.639Z,60.30
2018-06-11T22:48:21.612Z,60.70
2018-06-11T22:50:48.603Z,61.00
2018-06-11T22:53:15.619Z,61.20
2018-06-11T22:55:42.626Z,61.30
2018-06-11T22:58:09.581Z,61.80
2018-06-11T23:00:36.564Z,62.20
2018-06-11T23:03:03.593Z,62.30
2018-06-11T23:05:30.591Z,62.30
2018-06-11T23:07:57.634Z,62.70
2018-06-11T23:10:24.648Z,62.80
2018-06-11T23:12:51.603Z,63.30
2018-06-11T23:15:18.611Z,63.60
2018-06-11T23:17:45.594Z,63.70
2018-06-11T23:20:12.640Z,64.20
2018-06-11T23:22:40.049Z,63.90
2018-06-11T23:25:07.047Z,64.50
2018-06-11T23:27:34.069Z,65.00
2018-06-11T23:30:01.050Z,65.20
2018-06-11T23:32:28.468Z,65.40
2018-06-11T23:34:55.440Z,66.00
2018-06-11T23:37:22.455Z,65.80
2018-06-11T23:39:49.492Z,65.80
2018-06-11T23:42:16.517Z,65.90
2018-06-11T23:44:43.538Z,66.30
2018-06-11T23:47:10.566Z,66.80
2018-06-11T23:49:37.592Z,66.90
2018-06-11T23:52:04.624Z,67.10
2018-06-11T23:54:31.697Z,68.20
2018-06-11T23:56:58.728Z,67.60
2018-06-11T23:59:25.676Z,67.80
